createdAt,value
2023-04-27T00:01:33.342Z,100877.97
2023-04-27T00:03:59.891Z,100877.06
2023-04-27T00:06:27.405Z,100877.09
2023-04-27T00:08:54.001Z,100873.63
2023-04-27T00:11:20.363Z,100866.66
2023-04-27T00:13:46.948Z,100863.22
2023-04-27T00:16:13.450Z,100857.13
2023-04-27T00:18:39.876Z,100852.78
2023-04-27T00:21:06.360Z,100854.56
2023-04-27T00:23:32.708Z,100852.88
2023-04-27T00:25:59.254Z,100841.56
2023-04-27T00:28:26.038Z,100838.97
2023-04-27T00:30:54.514Z,100833.75
2023-04-27T00:33:21.478Z,100840.69
2023-04-27T00:35:47.827Z,100843.34
2023-04-27T00:38:14.353Z,100841.63
2023-04-27T00:40:40.885Z,100836.50
2023-04-27T00:43:07.239Z,100831.28
2023-04-27T00:45:42.018Z,100832.13
2023-04-27T00:48:08.849Z,100837.41
2023-04-27T00:50:38.702Z,100830.41
2023-04-27T00:53:05.863Z,100837.34
2023-04-27T00:55:32.215Z,100832.09
2023-04-27T00:57:58.601Z,100826.91
2023-04-27T01:00:25.058Z,100833.91
2023-04-27T01:02:52.415Z,100839.19
2023-04-27T01:05:19.549Z,100839.19
2023-04-27T01:07:46.073Z,100846.19
2023-04-27T01:10:12.633Z,100838.31
2023-04-27T01:12:39.056Z,100833.91
2023-04-27T01:15:06.704Z,100836.59
2023-04-27T01:17:33.077Z,100839.19
2023-04-27T01:19:59.622Z,100840.91
2023-04-27T01:22:26.707Z,100835.69
2023-04-27T01:24:53.666Z,100832.19
2023-04-27T01:27:20.015Z,100842.63
2023-04-27T01:29:46.590Z,100835.78
2023-04-27T01:32:12.960Z,100820.28
2023-04-27T01:34:39.356Z,100820.25
2023-04-27T01:37:05.993Z,100811.59
2023-04-27T01:39:32.533Z,100803.72
2023-04-27T01:41:58.953Z,100804.59
2023-04-27T01:44:25.343Z,100802.84
2023-04-27T01:46:51.793Z,100803.72
2023-04-27T01:49:18.158Z,100795.06
2023-04-27T01:51:44.495Z,100807.25
2023-04-27T01:54:10.956Z,100806.44
2023-04-27T01:56:37.343Z,100799.44
2023-04-27T01:59:03.717Z,100794.22
2023-04-27T02:01:31.379Z,100809.88
2023-04-27T02:03:57.951Z,100820.28
2023-04-27T02:06:24.444Z,100818.53
2023-04-27T02:08:51.702Z,100808.97
2023-04-27T02:11:18.038Z,100829.84
2023-04-27T02:13:44.373Z,100835.97
2023-04-27T02:16:11.079Z,100844.63
2023-04-27T02:18:38.444Z,100838.50
2023-04-27T02:21:09.424Z,100855.03
2023-04-27T02:23:35.814Z,100861.13
2023-04-27T02:26:02.496Z,100855.06
2023-04-27T02:28:29.143Z,100860.28
2023-04-27T02:30:55.894Z,100862.06
2023-04-27T02:33:22.228Z,100846.38
2023-04-27T02:35:48.568Z,100857.69
2023-04-27T02:38:15.724Z,100858.50
2023-04-27T02:40:42.243Z,100860.25
2023-04-27T02:43:08.610Z,100865.44
2023-04-27T02:45:38.341Z,100870.72
2023-04-27T02:48:05.077Z,100869.00
2023-04-27T02:50:31.607Z,100869.88
2023-04-27T02:52:57.979Z,100870.81
2023-04-27T02:55:24.381Z,100866.44
2023-04-27T02:57:51.367Z,100867.28
2023-04-27T03:00:18.853Z,100858.63
2023-04-27T03:02:45.426Z,100855.13
2023-04-27T03:05:12.828Z,100856.84
2023-04-27T03:07:39.376Z,100860.31
2023-04-27T03:10:06.112Z,100852.47
2023-04-27T03:12:32.468Z,100862.13
2023-04-27T03:14:59.712Z,100870.81
2023-04-27T03:17:26.206Z,100854.38
2023-04-27T03:19:52.877Z,100850.97
2023-04-27T03:22:19.264Z,100841.41
2023-04-27T03:24:45.680Z,100841.44
2023-04-27T03:27:12.243Z,100827.56
2023-04-27T03:29:38.575Z,100831.03
2023-04-27T03:32:05.354Z,100837.13
2023-04-27T03:34:31.914Z,100830.16
2023-04-27T03:36:58.409Z,100837.13
2023-04-27T03:39:24.947Z,100826.81
2023-04-27T03:41:51.320Z,100822.47
2023-04-27T03:44:17.659Z,100815.56
2023-04-27T03:46:44.029Z,100812.97
2023-04-27T03:49:10.524Z,100820.75
2023-04-27T03:51:38.337Z,100815.56
2023-04-27T03:54:04.929Z,100806.88
2023-04-27T03:56:31.292Z,100793.88
2023-04-27T03:58:57.658Z,100799.94
2023-04-27T04:01:24.884Z,100799.94
2023-04-27T04:03:51.709Z,100798.22
2023-04-27T04:06:18.208Z,100784.38
2023-04-27T04:08:44.587Z,100782.66
2023-04-27T04:11:10.933Z,100784.44
2023-04-27T04:13:37.503Z,100773.13
2023-04-27T04:16:07.922Z,100766.19
2023-04-27T04:18:34.776Z,100768.75
2023-04-27T04:21:01.434Z,100780.91
2023-04-27T04:23:27.866Z,100779.19
2023-04-27T04:25:56.555Z,100787.00
2023-04-27T04:28:23.632Z,100789.63
2023-04-27T04:30:50.362Z,100779.22
2023-04-27T04:33:17.456Z,100767.09
2023-04-27T04:35:43.881Z,100763.66
2023-04-27T04:38:10.693Z,100769.72
2023-04-27T04:40:41.734Z,100758.47
2023-04-27T04:43:08.760Z,100751.53
2023-04-27T04:45:35.116Z,100746.31
2023-04-27T04:48:02.276Z,100750.69
2023-04-27T04:50:29.029Z,100731.63
2023-04-27T04:52:55.777Z,100730.75
2023-04-27T04:55:22.372Z,100718.59
2023-04-27T04:57:48.744Z,100709.06
2023-04-27T05:00:15.232Z,100702.19
2023-04-27T05:02:41.870Z,100690.91
2023-04-27T05:05:09.131Z,100683.97
2023-04-27T05:07:35.504Z,100673.56
2023-04-27T05:10:02.175Z,100654.63
2023-04-27T05:12:28.508Z,100607.88
2023-04-27T05:14:54.868Z,100583.59
2023-04-27T05:17:21.509Z,100602.59
2023-04-27T05:19:47.872Z,100625.09
2023-04-27T05:22:14.209Z,100653.69
2023-04-27T05:24:41.065Z,100668.44
2023-04-27T05:27:07.518Z,100647.63
2023-04-27T05:29:33.905Z,100650.16
2023-04-27T05:32:00.598Z,100685.72
2023-04-27T05:34:27.077Z,100697.84
2023-04-27T05:36:53.439Z,100699.59
2023-04-27T05:39:19.962Z,100696.13
2023-04-27T05:41:46.442Z,100722.09
2023-04-27T05:44:12.803Z,100737.66
2023-04-27T05:46:39.215Z,100747.22
2023-04-27T05:49:05.662Z,100765.38
2023-04-27T05:51:33.169Z,100775.81
2023-04-27T05:54:01.964Z,100780.97
2023-04-27T05:56:28.439Z,100784.44
2023-04-27T05:58:54.792Z,100798.28
2023-04-27T06:01:21.932Z,100818.19
2023-04-27T06:03:48.476Z,100830.34
2023-04-27T06:06:15.116Z,100853.72
2023-04-27T06:08:42.319Z,100867.59
2023-04-27T06:11:08.694Z,100885.78
2023-04-27T06:13:35.237Z,100884.97
2023-04-27T06:16:01.765Z,100889.28
2023-04-27T06:18:28.306Z,100888.41
2023-04-27T06:20:59.702Z,100907.44
2023-04-27T06:23:26.066Z,100910.91
2023-04-27T06:25:52.472Z,100919.59
2023-04-27T06:28:18.996Z,100921.31
2023-04-27T06:30:45.341Z,100935.13
2023-04-27T06:33:11.729Z,100980.25
2023-04-27T06:35:38.193Z,101002.81
2023-04-27T06:38:07.345Z,101022.75
2023-04-27T06:40:34.181Z,101013.22
2023-04-27T06:43:00.724Z,101000.19
2023-04-27T06:45:27.104Z,101006.25
2023-04-27T06:47:53.909Z,101040.94
2023-04-27T06:50:20.730Z,101036.63
2023-04-27T06:52:47.112Z,101039.19
2023-04-27T06:55:13.459Z,101079.94
2023-04-27T06:57:39.858Z,101087.75
2023-04-27T07:00:07.029Z,101110.31
2023-04-27T07:02:33.551Z,101105.09
2023-04-27T07:05:00.165Z,101109.44
2023-04-27T07:07:26.765Z,101112.03
2023-04-27T07:09:53.358Z,101102.44
2023-04-27T07:12:20.076Z,101118.94
2023-04-27T07:14:46.530Z,101131.94
2023-04-27T07:17:12.960Z,101139.75
2023-04-27T07:19:39.321Z,101162.31
2023-04-27T07:22:05.726Z,101180.53
2023-04-27T07:24:32.327Z,101167.50
2023-04-27T07:26:59.280Z,101191.81
2023-04-27T07:29:28.311Z,101183.97
2023-04-27T07:31:56.103Z,101177.84
2023-04-27T07:34:22.736Z,101179.53
2023-04-27T07:36:49.165Z,101175.97
2023-04-27T07:39:15.805Z,101195.97
2023-04-27T07:41:42.394Z,101210.78
2023-04-27T07:44:09.390Z,101220.38
2023-04-27T07:46:35.724Z,101202.09
2023-04-27T07:49:02.294Z,101209.91
2023-04-27T07:51:28.953Z,101210.75
2023-04-27T07:53:55.610Z,101233.34
2023-04-27T07:56:22.039Z,101248.16
2023-04-27T07:58:48.596Z,101259.47
2023-04-27T08:01:15.003Z,101289.03
2023-04-27T08:03:41.559Z,101257.72
2023-04-27T08:06:09.005Z,101231.56
2023-04-27T08:08:36.260Z,101233.28
2023-04-27T08:11:02.650Z,101249.78
2023-04-27T08:13:29.199Z,101271.53
2023-04-27T08:15:58.515Z,101272.38
2023-04-27T08:18:25.851Z,101267.19
2023-04-27T08:20:52.661Z,101265.38
2023-04-27T08:23:19.083Z,101265.28
2023-04-27T08:25:45.528Z,101264.34
2023-04-27T08:28:13.195Z,101280.03
2023-04-27T08:30:39.548Z,101279.22
2023-04-27T08:33:06.229Z,101283.59
2023-04-27T08:35:32.814Z,101294.97
2023-04-27T08:37:59.162Z,101299.34
2023-04-27T08:40:25.698Z,101303.69
2023-04-27T08:42:59.447Z,101308.91
2023-04-27T08:45:26.707Z,101295.78
2023-04-27T08:47:53.231Z,101292.19
2023-04-27T08:50:19.690Z,101283.38
2023-04-27T08:52:46.756Z,101277.06
2023-04-27T08:55:15.105Z,101282.22
2023-04-27T08:57:53.130Z,101281.38
2023-04-27T09:00:20.260Z,101288.38
2023-04-27T09:02:47.279Z,101290.22
2023-04-27T09:05:18.401Z,101294.66
2023-04-27T09:08:07.990Z,101295.59
2023-04-27T09:10:47.561Z,101290.34
2023-04-27T09:13:13.942Z,101296.44
2023-04-27T09:15:51.538Z,101295.53
2023-04-27T09:18:21.939Z,101294.53
2023-04-27T09:20:49.562Z,101298.84
2023-04-27T09:23:32.307Z,101310.13
2023-04-27T09:25:59.904Z,101311.88
2023-04-27T09:28:30.870Z,101320.53
2023-04-27T09:30:58.799Z,101306.56
2023-04-27T09:33:26.515Z,101310.00
2023-04-27T09:35:53.271Z,101303.84
2023-04-27T09:38:20.512Z,101292.25
2023-04-27T09:40:47.141Z,101286.81
2023-04-27T09:43:13.482Z,101295.34
2023-04-27T09:45:39.919Z,101299.72
2023-04-27T09:48:06.436Z,101317.38
2023-04-27T09:50:51.640Z,101313.16
2023-04-27T09:53:25.285Z,101312.38
2023-04-27T09:56:07.103Z,101314.09
2023-04-27T09:58:39.419Z,101314.16
2023-04-27T10:01:21.510Z,101309.66
2023-04-27T10:04:22.290Z,101317.34
2023-04-27T10:07:02.240Z,101305.75
2023-04-27T10:09:48.157Z,101312.78
2023-04-27T10:12:27.719Z,101307.28
2023-04-27T10:15:00.908Z,101310.75
2023-04-27T10:17:31.738Z,101307.84
2023-04-27T10:19:58.974Z,101298.72
2023-04-27T10:22:39.880Z,101296.88
2023-04-27T10:25:28.758Z,101302.31
2023-04-27T10:28:01.124Z,101306.16
2023-04-27T10:30:35.909Z,101315.00
2023-04-27T10:33:07.575Z,101320.31
2023-04-27T10:35:38.158Z,101311.59
2023-04-27T10:38:10.912Z,101304.22
2023-04-27T10:40:38.124Z,101310.72
2023-04-27T10:43:12.377Z,101301.50
2023-04-27T10:45:39.007Z,101309.91
2023-04-27T10:48:05.733Z,101301.84
2023-04-27T10:50:32.338Z,101311.31
2023-04-27T10:53:04.090Z,101311.25
2023-04-27T10:55:33.450Z,101313.41
2023-04-27T10:58:00.234Z,101318.22
2023-04-27T11:00:33.574Z,101314.03
2023-04-27T11:03:12.146Z,101310.50
2023-04-27T11:05:38.761Z,101305.25
2023-04-27T11:08:12.421Z,101315.69
2023-04-27T11:10:39.453Z,101313.75
2023-04-27T11:13:13.040Z,101305.16
2023-04-27T11:15:56.091Z,101299.91
2023-04-27T11:18:23.934Z,101293.94
2023-04-27T11:21:08.226Z,101295.75
2023-04-27T11:23:38.457Z,101298.16
2023-04-27T11:26:18.104Z,101302.38
2023-04-27T11:29:13.854Z,101299.34
2023-04-27T11:31:41.831Z,101303.69
2023-04-27T11:34:08.241Z,101304.88
2023-04-27T11:36:34.577Z,101315.03
2023-04-27T11:39:01.227Z,101318.88
2023-04-27T11:41:37.387Z,101307.16
2023-04-27T11:44:07.724Z,101314.00
2023-04-27T11:46:36.530Z,101308.38
2023-04-27T11:49:06.918Z,101307.03
2023-04-27T11:51:33.632Z,101287.81
2023-04-27T11:54:06.663Z,101297.72
2023-04-27T11:56:40.640Z,101284.13
2023-04-27T11:59:07.151Z,101287.00
2023-04-27T12:01:38.115Z,101282.63
2023-04-27T12:04:05.211Z,101280.53
2023-04-27T12:06:33.782Z,101274.84
2023-04-27T12:09:00.857Z,101275.50
2023-04-27T12:11:30.135Z,101295.03
2023-04-27T12:13:56.776Z,101292.91
2023-04-27T12:16:23.312Z,101294.63
2023-04-27T12:18:50.205Z,101294.19
2023-04-27T12:21:16.682Z,101297.66
2023-04-27T12:23:43.301Z,101292.69
2023-04-27T12:26:10.017Z,101285.28
2023-04-27T12:28:37.168Z,101285.41
2023-04-27T12:31:04.190Z,101288.53
2023-04-27T12:33:30.760Z,101294.47
2023-04-27T12:35:57.102Z,101288.28
2023-04-27T12:38:23.700Z,101267.22
2023-04-27T12:40:50.368Z,101276.66
2023-04-27T12:43:16.751Z,101274.19
2023-04-27T12:45:43.330Z,101272.50
2023-04-27T12:48:09.686Z,101258.53
2023-04-27T12:50:37.624Z,101267.75
2023-04-27T12:53:04.070Z,101268.66
2023-04-27T12:55:34.207Z,101270.34
2023-04-27T12:58:01.704Z,101263.44
2023-04-27T13:00:29.438Z,101269.94
2023-04-27T13:02:56.595Z,101256.63
2023-04-27T13:05:23.298Z,101256.63
2023-04-27T13:07:49.711Z,101257.56
2023-04-27T13:10:16.198Z,101254.47
2023-04-27T13:12:42.656Z,101258.31
2023-04-27T13:15:09.599Z,101258.41
2023-04-27T13:17:35.976Z,101257.06
2023-04-27T13:20:02.506Z,101258.59
2023-04-27T13:22:28.907Z,101251.44
2023-04-27T13:24:58.168Z,101252.56
2023-04-27T13:27:28.413Z,101245.09
2023-04-27T13:29:54.803Z,101244.91
2023-04-27T13:32:22.075Z,101235.31
2023-04-27T13:34:49.132Z,101241.59
2023-04-27T13:37:15.529Z,101240.88
2023-04-27T13:39:41.871Z,101248.31
2023-04-27T13:42:08.336Z,101244.47
2023-04-27T13:44:34.718Z,101247.31
2023-04-27T13:47:01.114Z,101245.97
2023-04-27T13:49:27.713Z,101236.19
2023-04-27T13:51:54.093Z,101242.94
2023-04-27T13:54:21.344Z,101240.56
2023-04-27T13:56:47.953Z,101236.28
2023-04-27T13:59:16.024Z,101232.69
2023-04-27T14:01:42.712Z,101234.97
2023-04-27T14:04:10.113Z,101234.28
2023-04-27T14:06:36.661Z,101231.44
2023-04-27T14:09:03.099Z,101234.63
2023-04-27T14:11:29.903Z,101237.16
2023-04-27T14:13:56.450Z,101236.25
2023-04-27T14:16:24.330Z,101236.94
2023-04-27T14:18:52.223Z,101247.16
2023-04-27T14:21:18.584Z,101243.00
2023-04-27T14:23:44.964Z,101242.03
2023-04-27T14:26:11.383Z,101248.97
2023-04-27T14:28:37.747Z,101245.84
2023-04-27T14:31:04.126Z,101244.06
2023-04-27T14:33:30.677Z,101243.56
2023-04-27T14:35:57.052Z,101242.19
2023-04-27T14:38:23.426Z,101247.63
2023-04-27T14:40:49.791Z,101244.06
2023-04-27T14:43:17.826Z,101245.84
2023-04-27T14:45:51.659Z,101236.34
2023-04-27T14:48:20.857Z,101228.72
2023-04-27T14:50:47.457Z,101230.34
2023-04-27T14:53:13.845Z,101229.28
2023-04-27T14:55:41.082Z,101224.75
2023-04-27T14:58:07.657Z,101225.84
2023-04-27T15:00:34.011Z,101232.13
2023-04-27T15:03:00.467Z,101225.75
2023-04-27T15:05:27.054Z,101231.75
2023-04-27T15:07:53.397Z,101219.06
2023-04-27T15:10:19.772Z,101224.84
2023-04-27T15:12:46.445Z,101229.31
2023-04-27T15:15:12.998Z,101222.47
2023-04-27T15:17:39.390Z,101227.09
2023-04-27T15:20:06.747Z,101220.75
2023-04-27T15:22:33.235Z,101210.19
2023-04-27T15:24:59.722Z,101210.03
2023-04-27T15:27:26.301Z,101217.34
2023-04-27T15:29:55.579Z,101216.47
2023-04-27T15:32:24.456Z,101214.09
2023-04-27T15:34:51.781Z,101219.94
2023-04-27T15:37:18.353Z,101206.25
2023-04-27T15:39:44.775Z,101194.03
2023-04-27T15:42:11.350Z,101179.41
2023-04-27T15:44:37.711Z,101176.59
2023-04-27T15:47:04.596Z,101173.97
2023-04-27T15:49:31.239Z,101172.88
2023-04-27T15:51:57.643Z,101178.56
2023-04-27T15:54:24.081Z,101164.13
2023-04-27T15:56:50.608Z,101155.94
2023-04-27T15:59:17.219Z,101167.88
2023-04-27T16:01:43.682Z,101160.06
2023-04-27T16:04:10.269Z,101156.13
2023-04-27T16:06:37.061Z,101155.66
2023-04-27T16:09:03.644Z,101153.97
2023-04-27T16:11:31.226Z,101146.41
2023-04-27T16:13:57.767Z,101147.56
2023-04-27T16:16:24.205Z,101145.47
2023-04-27T16:18:50.898Z,101144.56
2023-04-27T16:21:17.241Z,101141.66
2023-04-27T16:23:43.635Z,101140.31
2023-04-27T16:26:10.221Z,101134.78
2023-04-27T16:28:37.025Z,101123.09
2023-04-27T16:31:03.400Z,101136.59
2023-04-27T16:33:29.799Z,101129.25
2023-04-27T16:35:57.211Z,101144.78
2023-04-27T16:38:23.623Z,101133.19
2023-04-27T16:40:49.996Z,101124.66
2023-04-27T16:43:16.397Z,101143.19
2023-04-27T16:45:42.884Z,101138.22
2023-04-27T16:48:10.485Z,101141.50
2023-04-27T16:50:36.917Z,101152.66
2023-04-27T16:53:07.301Z,101167.66
2023-04-27T16:55:34.451Z,101155.56
2023-04-27T16:58:00.945Z,101163.72
2023-04-27T17:00:28.167Z,101164.88
2023-04-27T17:02:54.827Z,101162.97
2023-04-27T17:05:21.519Z,101173.56
2023-04-27T17:07:47.968Z,101172.25
2023-04-27T17:10:14.601Z,101174.16
2023-04-27T17:12:41.114Z,101182.59
2023-04-27T17:15:08.366Z,101182.72
2023-04-27T17:17:34.893Z,101188.38
2023-04-27T17:20:01.459Z,101183.19
2023-04-27T17:22:29.612Z,101184.97
2023-04-27T17:24:56.051Z,101181.84
2023-04-27T17:27:22.425Z,101175.88
2023-04-27T17:29:48.821Z,101178.88
2023-04-27T17:32:15.284Z,101181.41
2023-04-27T17:34:43.057Z,101165.78
2023-04-27T17:37:09.590Z,101174.09
2023-04-27T17:39:35.983Z,101175.13
2023-04-27T17:42:02.640Z,101177.03
2023-04-27T17:44:29.094Z,101167.44
2023-04-27T17:46:55.904Z,101166.56
2023-04-27T17:49:22.406Z,101160.56
2023-04-27T17:51:48.906Z,101154.56
2023-04-27T17:54:15.249Z,101151.63
2023-04-27T17:56:42.682Z,101140.72
2023-04-27T17:59:09.294Z,101148.78
2023-04-27T18:01:35.985Z,101149.03
2023-04-27T18:04:04.566Z,101151.16
2023-04-27T18:06:32.061Z,101145.44
2023-04-27T18:08:58.510Z,101143.13
2023-04-27T18:11:25.075Z,101143.41
2023-04-27T18:13:52.465Z,101138.44
2023-04-27T18:16:18.812Z,101137.03
2023-04-27T18:18:45.192Z,101146.06
2023-04-27T18:21:11.717Z,101139.22
2023-04-27T18:23:38.124Z,101146.31
2023-04-27T18:26:04.496Z,101132.56
2023-04-27T18:28:31.019Z,101141.47
2023-04-27T18:30:57.364Z,101142.50
2023-04-27T18:33:23.703Z,101142.50
2023-04-27T18:35:50.585Z,101133.88
2023-04-27T18:38:16.930Z,101133.25
2023-04-27T18:40:43.320Z,101138.75
2023-04-27T18:43:09.990Z,101138.97
2023-04-27T18:45:36.448Z,101131.28
2023-04-27T18:48:03.028Z,101134.06
2023-04-27T18:50:29.452Z,101144.63
2023-04-27T18:52:55.938Z,101132.38
2023-04-27T18:55:22.623Z,101141.19
2023-04-27T18:57:49.069Z,101135.16
2023-04-27T19:00:15.707Z,101130.94
2023-04-27T19:02:42.214Z,101134.50
2023-04-27T19:05:12.929Z,101143.31
2023-04-27T19:07:40.093Z,101142.53
2023-04-27T19:10:07.045Z,101140.00
2023-04-27T19:12:33.502Z,101143.63
2023-04-27T19:14:59.846Z,101140.22
2023-04-27T19:17:26.768Z,101132.41
2023-04-27T19:19:53.514Z,101135.06
2023-04-27T19:22:19.878Z,101135.19
2023-04-27T19:24:46.241Z,101130.78
2023-04-27T19:27:12.774Z,101128.25
2023-04-27T19:29:55.863Z,101130.88
2023-04-27T19:32:25.159Z,101123.91
2023-04-27T19:34:51.552Z,101135.22
2023-04-27T19:37:17.924Z,101123.97
2023-04-27T19:39:44.311Z,101120.56
2023-04-27T19:42:10.688Z,101120.69
2023-04-27T19:44:37.038Z,101128.66
2023-04-27T19:47:03.454Z,101119.13
2023-04-27T19:49:33.355Z,101115.75
2023-04-27T19:52:00.139Z,101111.53
2023-04-27T19:54:26.530Z,101110.72
2023-04-27T19:56:53.287Z,101111.66
2023-04-27T19:59:19.714Z,101110.75
2023-04-27T20:01:46.536Z,101109.94
2023-04-27T20:04:13.216Z,101117.78
2023-04-27T20:06:40.741Z,101115.22
2023-04-27T20:09:07.399Z,101108.25
2023-04-27T20:11:33.748Z,101110.09
2023-04-27T20:14:00.144Z,101111.88
2023-04-27T20:16:26.660Z,101111.94
2023-04-27T20:18:53.029Z,101120.72
2023-04-27T20:21:21.332Z,101103.34
2023-04-27T20:23:48.067Z,101112.13
2023-04-27T20:26:14.457Z,101106.09
2023-04-27T20:28:40.837Z,101102.69
2023-04-27T20:31:07.327Z,101100.13
2023-04-27T20:33:33.725Z,101097.53
2023-04-27T20:36:06.707Z,101098.47
2023-04-27T20:38:42.984Z,101100.25
2023-04-27T20:41:10.428Z,101100.25
2023-04-27T20:43:38.982Z,101102.06
2023-04-27T20:46:07.365Z,101108.25
2023-04-27T20:48:34.227Z,101094.38
2023-04-27T20:51:00.743Z,101093.56
2023-04-27T20:53:27.193Z,101086.56
2023-04-27T20:55:53.597Z,101088.28
2023-04-27T20:58:19.963Z,101085.72
2023-04-27T21:00:46.419Z,101088.38
2023-04-27T21:03:13.184Z,101078.00
2023-04-27T21:05:41.102Z,101080.69
2023-04-27T21:08:07.651Z,101088.59
2023-04-27T21:10:35.448Z,101082.56
2023-04-27T21:13:03.953Z,101080.00
2023-04-27T21:15:30.662Z,101076.59
2023-04-27T21:17:57.099Z,101074.88
2023-04-27T21:20:23.503Z,101078.38
2023-04-27T21:22:50.125Z,101073.22
2023-04-27T21:25:16.541Z,101074.09
2023-04-27T21:27:42.936Z,101066.34
2023-04-27T21:30:10.162Z,101061.13
2023-04-27T21:32:36.587Z,101055.97
2023-04-27T21:35:03.025Z,101054.25
2023-04-27T21:37:29.561Z,101049.94
2023-04-27T21:39:55.929Z,101039.56
2023-04-27T21:42:22.260Z,101046.56
2023-04-27T21:44:48.797Z,101039.56
2023-04-27T21:47:15.158Z,101036.13
2023-04-27T21:49:41.541Z,101034.41
2023-04-27T21:52:07.924Z,101034.47
2023-04-27T21:54:34.312Z,101039.69
2023-04-27T21:57:00.755Z,101037.03
2023-04-27T21:59:27.116Z,101028.31
2023-04-27T22:01:53.637Z,101020.50
2023-04-27T22:04:20.433Z,101016.16
2023-04-27T22:06:47.311Z,101013.59
2023-04-27T22:09:13.930Z,101013.56
2023-04-27T22:11:40.325Z,101006.63
2023-04-27T22:14:06.836Z,101000.59
2023-04-27T22:16:33.298Z,100998.84
2023-04-27T22:18:59.698Z,100995.34
2023-04-27T22:21:27.532Z,100996.19
2023-04-27T22:23:53.875Z,100981.50
2023-04-27T22:26:20.320Z,100983.22
2023-04-27T22:28:47.466Z,100984.97
2023-04-27T22:31:14.069Z,100991.03
2023-04-27T22:33:40.568Z,100981.50
2023-04-27T22:36:07.409Z,100985.03
2023-04-27T22:38:33.749Z,100985.00
2023-04-27T22:41:00.094Z,100978.88
2023-04-27T22:43:26.738Z,100975.41
2023-04-27T22:45:53.076Z,100972.81
2023-04-27T22:48:19.419Z,100962.44
2023-04-27T22:50:48.289Z,100963.31
2023-04-27T22:53:14.653Z,100968.53
2023-04-27T22:55:41.021Z,100959.00
2023-04-27T22:58:07.415Z,100943.41
2023-04-27T23:00:33.756Z,100947.78
2023-04-27T23:03:00.360Z,100947.81
2023-04-27T23:05:27.198Z,100943.53
2023-04-27T23:07:53.548Z,100948.75
2023-04-27T23:10:19.932Z,100934.94
2023-04-27T23:12:46.487Z,100934.88
2023-04-27T23:15:12.890Z,100934.03
2023-04-27T23:17:39.274Z,100933.16
2023-04-27T23:20:11.175Z,100938.38
2023-04-27T23:22:43.848Z,100935.75
2023-04-27T23:25:10.634Z,100936.66
2023-04-27T23:27:36.974Z,100936.66
2023-04-27T23:30:04.236Z,100934.09
2023-04-27T23:32:30.650Z,100940.13
2023-04-27T23:34:57.012Z,100941.84
2023-04-27T23:37:24.244Z,100939.28
2023-04-27T23:39:50.879Z,100928.00
2023-04-27T23:42:17.288Z,100926.28
2023-04-27T23:44:43.780Z,100931.50
2023-04-27T23:47:10.223Z,100932.34
2023-04-27T23:49:36.595Z,100929.78
2023-04-27T23:52:02.967Z,100932.38
2023-04-27T23:54:32.681Z,100934.97
2023-04-27T23:56:59.024Z,100932.38
2023-04-27T23:59:25.425Z,100928.00
